Time;durP1;ratioP1;P1;durP2;ratioP2;P2;SDS_P1;SDS_P2;PMS_P1;PMS_P2;Temp;Humidity;BMP_temperature;BMP_pressure;BME280_temperature;BME280_humidity;BME280_pressure;Samples;Min_cycle;Max_cycle;Signal;HPM_P1;HPM_P2
2023/11/01 00:00:05;;;;;;;0.50;0.50;;;;;;;11.72;82.58;99063.38;5074290;28;20055;-69
2023/11/01 00:02:41;;;;;;;0.30;0.30;;;;;;;11.71;82.50;99066.78;5074772;28;20048;-69
2023/11/01 00:05:10;;;;;;;0.45;0.45;;;;;;;11.72;82.70;99076.16;5074462;28;20565;-70
2023/11/01 00:07:39;;;;;;;0.57;0.50;;;;;;;11.69;82.51;99078.75;5074664;28;20140;-69
2023/11/01 00:10:10;;;;;;;0.40;0.40;;;;;;;11.68;82.58;99081.34;5074401;28;20040;-69
2023/11/01 00:12:38;;;;;;;0.75;0.75;;;;;;;11.73;82.61;99082.97;5074391;28;20132;-70
2023/11/01 00:15:08;;;;;;;0.40;0.40;;;;;;;11.68;82.55;99082.19;5074211;28;20055;-69
2023/11/01 00:17:37;;;;;;;0.43;0.43;;;;;;;11.66;82.72;99088.97;5074188;28;20094;-69
2023/11/01 00:20:09;;;;;;;0.40;0.40;;;;;;;11.68;82.63;99094.97;5074463;28;20043;-69
2023/11/01 00:22:37;;;;;;;0.73;0.73;;;;;;;11.71;82.64;99092.34;5073192;28;20044;-70
2023/11/01 00:25:07;;;;;;;0.97;0.57;;;;;;;11.73;82.76;99095.75;5074038;28;20119;-69
2023/11/01 00:27:37;;;;;;;0.30;0.30;;;;;;;11.75;82.75;99093.16;5074039;28;20032;-69
2023/11/01 00:30:08;;;;;;;0.32;0.32;;;;;;;11.75;82.55;99099.13;5072811;28;20041;-70
2023/11/01 00:32:39;;;;;;;0.47;0.47;;;;;;;11.74;82.50;99102.53;5072882;28;20044;-70
2023/11/01 00:35:09;;;;;;;0.70;0.60;;;;;;;11.74;82.52;99107.63;5074240;28;20393;-69
2023/11/01 00:37:38;;;;;;;0.40;0.40;;;;;;;11.50;82.46;99066.22;5073031;28;20068;-69
2023/11/01 00:40:08;;;;;;;2.10;0.80;;;;;;;11.81;82.34;99113.50;5073796;28;20123;-69
2023/11/01 00:42:38;;;;;;;0.40;0.40;;;;;;;11.79;82.25;99116.09;5073831;28;20124;-68
2023/11/01 00:45:08;;;;;;;0.82;0.82;;;;;;;11.78;82.01;99119.50;5073715;28;20044;-69
2023/11/01 00:47:37;;;;;;;0.70;0.70;;;;;;;11.77;82.08;99115.28;5073642;28;20589;-70
2023/11/01 00:50:07;;;;;;;0.33;0.33;;;;;;;11.69;82.15;99103.44;5073757;28;20048;-69
2023/11/01 00:52:36;;;;;;;0.80;0.75;;;;;;;11.77;81.67;99116.97;5074046;28;20482;-69
2023/11/01 00:55:05;;;;;;;3.03;1.23;;;;;;;11.74;81.71;99107.63;5073650;28;20040;-69
2023/11/01 00:57:35;;;;;;;0.57;0.55;;;;;;;11.71;81.82;99106.84;5072722;28;20116;-69
2023/11/01 01:00:07;;;;;;;0.30;0.30;;;;;;;11.82;81.92;99123.72;5073577;28;20072;-69
2023/11/01 01:02:37;;;;;;;0.40;0.40;;;;;;;11.76;81.71;99118.69;5073694;28;20045;-69
2023/11/01 01:05:06;;;;;;;0.45;0.45;;;;;;;11.79;81.99;99125.47;5074152;28;20037;-69
2023/11/01 01:07:35;;;;;;;0.50;0.50;;;;;;;11.81;82.04;99134.81;5073791;28;20172;-69
2023/11/01 01:10:05;;;;;;;0.40;0.40;;;;;;;11.80;82.17;99130.56;5073793;28;20485;-69
2023/11/01 01:12:34;;;;;;;0.65;0.65;;;;;;;11.81;82.14;99139.91;5073022;28;20273;-69
2023/11/01 01:15:05;;;;;;;0.67;0.67;;;;;;;11.78;82.29;99134.84;5072346;28;20116;-69
2023/11/01 01:17:34;;;;;;;0.40;0.40;;;;;;;11.76;82.19;99135.72;5073413;28;20048;-69
2023/11/01 01:20:04;;;;;;;0.43;0.43;;;;;;;11.74;82.50;99142.56;5072215;28;20090;-69
2023/11/01 01:22:33;;;;;;;0.40;0.40;;;;;;;11.65;82.54;99133.31;5073419;28;20568;-69
2023/11/01 01:25:02;;;;;;;0.30;0.30;;;;;;;11.67;82.70;99149.47;5072236;28;20052;-69
2023/11/01 01:27:31;;;;;;;0.98;0.88;;;;;;;11.70;82.61;99151.16;5073405;28;20448;-69
2023/11/01 01:30:00;;;;;;;0.47;0.47;;;;;;;11.72;82.56;99155.41;5073417;28;20482;-68
2023/11/01 01:32:33;;;;;;;0.57;0.57;;;;;;;11.70;82.63;99157.13;5073342;28;20390;-69
2023/11/01 01:35:03;;;;;;;0.90;0.68;;;;;;;11.69;82.33;99150.31;5073327;28;20052;-68
2023/11/01 01:37:32;;;;;;;0.43;0.43;;;;;;;11.66;82.53;99145.19;5072334;28;20041;-69
2023/11/01 01:40:00;;;;;;;0.53;0.53;;;;;;;11.65;82.24;99146.09;5072342;28;20037;-69
2023/11/01 01:42:29;;;;;;;0.30;0.30;;;;;;;11.64;82.28;99136.72;5073185;28;20045;-68
2023/11/01 01:44:57;;;;;;;0.50;0.50;;;;;;;11.62;82.07;99142.72;5073143;28;20048;-69
2023/11/01 01:47:26;;;;;;;0.52;0.52;;;;;;;11.59;81.85;99142.78;5073012;28;20041;-69
2023/11/01 01:49:57;;;;;;;0.40;0.40;;;;;;;11.61;82.24;99147.00;5072172;28;20391;-69
2023/11/01 01:52:25;;;;;;;0.52;0.52;;;;;;;11.62;82.27;99145.25;5089365;28;20485;-69
2023/11/01 01:54:54;;;;;;;0.37;0.37;;;;;;;11.66;82.11;99149.50;5088729;28;20125;-69
2023/11/01 01:57:25;;;;;;;1.13;0.68;;;;;;;11.68;82.41;99158.00;5073532;28;20286;-69
2023/11/01 01:59:55;;;;;;;0.45;0.45;;;;;;;11.65;82.30;99158.88;5088816;28;20103;-69
2023/11/01 02:02:25;;;;;;;0.57;0.57;;;;;;;11.60;82.27;99155.53;5072883;28;20039;-69
2023/11/01 02:04:56;;;;;;;0.57;0.57;;;;;;;11.59;82.42;99161.50;5071843;28;20045;-69
2023/11/01 02:07:25;;;;;;;1.20;1.10;;;;;;;11.54;82.26;99160.69;5071800;28;20072;-69
2023/11/01 02:09:54;;;;;;;0.45;0.45;;;;;;;11.50;82.31;99159.06;5072870;28;20127;-69
2023/11/01 02:12:24;;;;;;;0.50;0.50;;;;;;;11.42;82.27;99155.78;5072895;28;20076;-68
2023/11/01 02:14:54;;;;;;;0.30;0.30;;;;;;;11.44;82.23;99164.25;5071790;28;20094;-68
2023/11/01 02:17:23;;;;;;;0.50;0.50;;;;;;;11.48;82.35;99171.00;5072928;28;20094;-69
2023/11/01 02:19:53;;;;;;;0.30;0.30;;;;;;;11.49;82.38;99177.81;5071707;28;20047;-69
2023/11/01 02:22:23;;;;;;;0.40;0.40;;;;;;;11.44;81.81;99169.38;5072862;28;20469;-69
2023/11/01 02:24:58;;;;;;;1.00;0.50;;;;;;;11.39;82.27;99171.13;5075871;28;20057;-69
2023/11/01 02:27:28;;;;;;;0.40;0.40;;;;;;;11.41;82.09;99179.63;5075530;28;20153;-68
2023/11/01 02:29:57;;;;;;;0.50;0.50;;;;;;;11.34;82.01;99178.00;5076330;28;20498;-68
2023/11/01 02:32:30;;;;;;;0.83;0.83;;;;;;;11.32;82.31;99179.75;5075447;28;20367;-68
2023/11/01 02:35:00;;;;;;;0.52;0.52;;;;;;;11.35;82.21;99179.69;5076497;28;20347;-69
2023/11/01 02:37:29;;;;;;;;;;;;;;;11.37;82.35;99177.97;5076613;28;20098;-68
2023/11/01 02:39:59;;;;;;;0.30;0.30;;;;;;;11.39;82.18;99177.09;5076056;28;19970;-69
2023/11/01 02:42:28;;;;;;;0.20;0.20;;;;;;;11.36;82.30;99166.06;5074956;28;20045;-68
2023/11/01 02:44:57;;;;;;;0.65;0.65;;;;;;;11.35;82.12;99172.00;5074881;28;20033;-68
2023/11/01 02:47:26;;;;;;;2.47;1.13;;;;;;;11.24;82.15;99177.28;5075607;28;20048;-69
2023/11/01 02:49:55;;;;;;;0.40;0.40;;;;;;;11.10;82.10;99186.78;5075320;28;20281;-69
2023/11/01 02:52:24;;;;;;;0.63;0.63;;;;;;;10.98;82.54;99198.84;5074813;28;20068;-69
2023/11/01 02:54:52;;;;;;;0.30;0.30;;;;;;;10.78;82.52;99193.94;5076146;28;20052;-69
2023/11/01 02:57:23;;;;;;;;;;;;;;;10.65;82.80;99200.84;5075004;28;20044;-69
2023/11/01 02:59:52;;;;;;;0.60;0.60;;;;;;;10.54;83.28;99205.19;5075709;28;19924;-69
2023/11/01 03:02:21;;;;;;;0.35;0.35;;;;;;;10.45;83.03;99210.38;5075728;28;20561;-69
2023/11/01 03:04:50;;;;;;;0.50;0.50;;;;;;;10.34;83.33;99209.59;5075942;28;20516;-69
2023/11/01 03:07:19;;;;;;;0.20;0.20;;;;;;;10.19;83.65;99188.47;5074525;28;20128;-69
2023/11/01 03:09:48;;;;;;;0.77;0.73;;;;;;;10.15;83.51;99207.22;5074768;28;20381;-69
2023/11/01 03:12:16;;;;;;;0.67;0.67;;;;;;;10.16;84.03;99209.75;5075758;28;20052;-69
2023/11/01 03:14:47;;;;;;;0.77;0.73;;;;;;;10.12;83.77;99197.03;5074577;28;20497;-69
2023/11/01 03:17:16;;;;;;;0.30;0.30;;;;;;;10.08;84.00;99202.09;5075428;28;20067;-69
2023/11/01 03:19:45;;;;;;;0.30;0.30;;;;;;;10.14;84.08;99208.06;5075933;28;20454;-69
2023/11/01 03:22:14;;;;;;;5.10;0.93;;;;;;;10.10;84.22;99213.13;5075167;28;20041;-69
2023/11/01 03:24:43;;;;;;;0.30;0.30;;;;;;;10.06;84.33;99213.16;5075285;28;20040;-69
2023/11/01 03:27:12;;;;;;;0.43;0.43;;;;;;;9.97;84.30;99209.00;5074003;28;20040;-69
2023/11/01 03:29:41;;;;;;;0.40;0.40;;;;;;;9.95;84.20;99210.69;5075204;28;20048;-69
2023/11/01 03:32:11;;;;;;;0.50;0.50;;;;;;;9.90;84.44;99209.03;5075340;28;20041;-69
2023/11/01 03:34:40;;;;;;;0.30;0.30;;;;;;;9.89;84.58;99213.28;5074716;28;20273;-69
2023/11/01 03:37:09;;;;;;;0.67;0.67;;;;;;;9.84;83.88;99222.63;5074996;28;20051;-69
2023/11/01 03:39:38;;;;;;;0.20;0.20;;;;;;;9.79;83.79;99233.75;5074954;28;20490;-69
2023/11/01 03:42:07;;;;;;;0.77;0.50;;;;;;;9.79;83.96;99243.94;5075332;28;20086;-69
2023/11/01 03:44:36;;;;;;;0.40;0.40;;;;;;;9.73;84.65;99233.75;5074839;28;20075;-68
2023/11/01 03:47:05;;;;;;;0.20;0.20;;;;;;;9.56;84.34;99216.00;5074646;28;20055;-68
2023/11/01 03:49:35;;;;;;;0.63;0.63;;;;;;;9.67;84.40;99241.44;5074720;28;20292;-68
2023/11/01 03:52:04;;;;;;;0.25;0.25;;;;;;;9.73;84.38;99241.41;5074035;28;20056;-68
2023/11/01 03:54:33;;;;;;;0.30;0.30;;;;;;;9.72;84.47;99243.09;5074640;28;20044;-69
2023/11/01 03:57:04;;;;;;;0.30;0.30;;;;;;;9.68;84.94;99241.41;5074651;28;20547;-68
2023/11/01 03:59:32;;;;;;;0.30;0.30;;;;;;;9.65;84.68;99251.63;5075107;28;20131;-69
2023/11/01 04:02:02;;;;;;;0.40;0.40;;;;;;;9.54;84.72;99237.22;5074949;28;20028;-69
2023/11/01 04:04:31;;;;;;;0.40;0.40;;;;;;;9.53;84.40;99238.06;5074403;28;20045;-68
2023/11/01 04:07:02;;;;;;;0.32;0.32;;;;;;;9.43;84.97;99240.66;5075270;28;20549;-69
2023/11/01 04:09:31;;;;;;;0.57;0.57;;;;;;;9.40;84.61;99240.69;5074455;28;20049;-68
2023/11/01 04:12:00;;;;;;;0.40;0.40;;;;;;;9.40;84.09;99253.41;5073168;28;20514;-69
2023/11/01 04:14:29;;;;;;;0.40;0.40;;;;;;;9.37;85.09;99255.13;5074207;28;20110;-70
2023/11/01 04:16:58;;;;;;;0.82;0.70;;;;;;;9.31;84.98;99250.03;5074293;28;20086;-69
2023/11/01 04:19:26;;;;;;;0.30;0.30;;;;;;;9.30;85.04;99253.44;5074259;28;20070;-69
2023/11/01 04:21:55;;;;;;;0.30;0.30;;;;;;;9.35;84.53;99257.69;5074283;28;20041;-68
2023/11/01 04:24:26;;;;;;;0.23;0.23;;;;;;;9.18;85.04;99259.41;5073985;28;20383;-68
2023/11/01 04:26:55;;;;;;;2.28;1.67;;;;;;;9.11;84.44;99267.91;5074074;28;20053;-69
2023/11/01 04:29:26;;;;;;;0.30;0.30;;;;;;;9.10;84.10;99256.03;5074003;28;20048;-69
2023/11/01 04:31:55;;;;;;;0.80;0.80;;;;;;;9.00;84.85;99258.59;5073965;28;20044;-69
2023/11/01 04:34:25;;;;;;;0.55;0.55;;;;;;;8.96;84.46;99267.91;5073928;28;20208;-69
2023/11/01 04:36:54;;;;;;;0.70;0.70;;;;;;;8.95;84.93;99260.31;5074326;28;20049;-69
2023/11/01 04:39:26;;;;;;;0.20;0.20;;;;;;;8.92;84.75;99256.06;5073988;28;20128;-69
2023/11/01 04:41:55;;;;;;;0.40;0.40;;;;;;;8.92;84.40;99271.34;5074455;28;20029;-69
2023/11/01 04:44:24;;;;;;;0.43;0.43;;;;;;;8.86;84.99;99267.91;5073803;28;20501;-69
2023/11/01 04:46:53;;;;;;;0.37;0.37;;;;;;;8.94;84.92;99268.78;5073388;28;20056;-68
2023/11/01 04:49:22;;;;;;;0.53;0.53;;;;;;;9.00;84.91;99264.50;5073734;28;20091;-69
2023/11/01 04:51:51;;;;;;;0.50;0.50;;;;;;;8.90;85.22;99262.81;5073733;28;20404;-69
2023/11/01 04:54:20;;;;;;;0.37;0.37;;;;;;;8.88;85.00;99271.34;5073769;28;20356;-68
2023/11/01 04:56:50;;;;;;;0.38;0.38;;;;;;;8.85;86.05;99273.88;5073611;28;20047;-69
2023/11/01 04:59:19;;;;;;;0.52;0.50;;;;;;;8.83;86.13;99270.50;5073628;28;20558;-68
2023/11/01 05:01:48;;;;;;;0.30;0.30;;;;;;;8.82;85.73;99269.63;5073598;28;20037;-68
2023/11/01 05:04:17;;;;;;;0.38;0.38;;;;;;;8.84;86.19;99273.03;5074814;28;20472;-68
2023/11/01 05:06:47;;;;;;;0.30;0.30;;;;;;;8.84;86.43;99273.03;5072934;28;20572;-69
2023/11/01 05:09:16;;;;;;;0.75;0.75;;;;;;;8.88;86.35;99278.97;5073504;28;20036;-68
2023/11/01 05:11:45;;;;;;;0.40;0.40;;;;;;;8.82;86.58;99281.50;5073525;28;20056;-69
2023/11/01 05:14:17;;;;;;;0.20;0.20;;;;;;;8.87;86.29;99283.22;5073822;28;20044;-69
2023/11/01 05:16:47;;;;;;;0.57;0.57;;;;;;;8.78;86.30;99284.03;5073428;28;20072;-69
2023/11/01 05:19:19;;;;;;;0.30;0.30;;;;;;;8.78;86.24;99283.22;5073477;28;20569;-69
2023/11/01 05:21:48;;;;;;;0.40;0.40;;;;;;;8.79;87.31;99289.97;5073838;28;20072;-69
2023/11/01 05:24:17;;;;;;;0.60;0.60;;;;;;;8.81;86.68;99293.38;5073681;28;20489;-69
2023/11/01 05:26:46;;;;;;;3.30;1.33;;;;;;;8.77;86.66;99301.84;5073340;28;20758;-68
2023/11/01 05:29:16;;;;;;;;;;;;;;;8.72;87.13;99294.22;5073692;28;20120;-69
2023/11/01 05:31:46;;;;;;;0.30;0.30;;;;;;;8.73;86.93;99302.72;5073600;28;19926;-69
2023/11/01 05:34:15;;;;;;;;;;;;;;;8.78;86.79;99308.66;5073698;28;20057;-68
2023/11/01 05:36:43;;;;;;;0.30;0.30;;;;;;;8.89;86.73;99306.09;5073451;28;20254;-68
2023/11/01 05:39:12;;;;;;;0.60;0.60;;;;;;;8.95;87.29;99303.56;5073500;28;20482;-69
2023/11/01 05:41:42;;;;;;;0.52;0.52;;;;;;;8.93;86.61;99302.69;5073233;28;20040;-68
2023/11/01 05:44:12;;;;;;;2.35;0.85;;;;;;;8.96;87.12;99313.72;5073159;28;20098;-68
2023/11/01 05:46:42;;;;;;;1.27;1.17;;;;;;;9.02;87.01;99303.53;5072914;28;20135;-68
2023/11/01 05:49:12;;;;;;;0.30;0.30;;;;;;;9.07;87.11;99306.09;5073197;28;20127;-68
2023/11/01 05:51:40;;;;;;;0.30;0.30;;;;;;;9.10;87.85;99312.03;5073123;28;20394;-68
2023/11/01 05:54:09;;;;;;;0.47;0.47;;;;;;;9.12;87.67;99315.41;5073373;28;20447;-68
2023/11/01 05:56:40;;;;;;;0.60;0.60;;;;;;;9.21;88.13;99320.47;5073366;28;20273;-69
2023/11/01 05:59:09;;;;;;;0.30;0.30;;;;;;;9.23;87.51;99317.97;5076897;28;20068;-68
2023/11/01 06:01:38;;;;;;;0.40;0.40;;;;;;;9.25;87.37;99323.91;5076951;28;20127;-69
2023/11/01 06:04:09;;;;;;;0.30;0.30;;;;;;;9.30;88.29;99324.75;5076706;28;20059;-69
2023/11/01 06:06:38;;;;;;;0.55;0.55;;;;;;;9.43;88.47;99327.25;5076469;28;20086;-69
2023/11/01 06:09:06;;;;;;;0.37;0.37;;;;;;;9.54;87.96;99328.94;5076425;28;20045;-69
2023/11/01 06:11:36;;;;;;;0.30;0.30;;;;;;;9.62;88.31;99337.41;5076627;28;20047;-69
2023/11/01 06:14:06;;;;;;;0.40;0.40;;;;;;;9.61;87.49;99331.47;5076869;28;20383;-68
2023/11/01 06:16:36;;;;;;;0.57;0.57;;;;;;;9.58;87.52;99330.63;5076542;28;20131;-68
2023/11/01 06:19:04;;;;;;;1.63;1.52;;;;;;;9.62;88.09;99342.50;5076555;28;20045;-69
2023/11/01 06:21:36;;;;;;;0.50;0.50;;;;;;;9.61;88.09;99330.63;5076738;28;20551;-69
2023/11/01 06:24:06;;;;;;;0.30;0.30;;;;;;;9.63;87.41;99344.19;5076407;28;20049;-69
2023/11/01 06:26:35;;;;;;;;;;;;;;;9.64;87.89;99341.66;5076697;28;20049;-69
2023/11/01 06:29:04;;;;;;;0.50;0.50;;;;;;;9.80;87.77;99337.34;5076607;28;19920;-68
2023/11/01 06:31:33;;;;;;;0.40;0.40;;;;;;;9.95;88.17;99329.66;5076330;28;20040;-68
2023/11/01 06:34:04;;;;;;;0.40;0.40;;;;;;;10.15;87.64;99330.44;5076114;28;20782;-68
2023/11/01 06:36:34;;;;;;;4.40;1.02;;;;;;;10.30;87.26;99334.63;5076512;28;20562;-68
2023/11/01 06:39:04;;;;;;;1.17;0.82;;;;;;;10.29;87.29;99338.91;5076177;28;20444;-68
2023/11/01 06:41:32;;;;;;;3.20;1.75;;;;;;;10.40;87.01;99341.38;5074881;28;20044;-69
2023/11/01 06:44:01;;;;;;;0.20;0.20;;;;;;;10.59;87.23;99348.91;5075957;28;20067;-68
2023/11/01 06:46:30;;;;;;;0.60;0.60;;;;;;;10.80;86.61;99344.53;5075860;28;20076;-68
2023/11/01 06:49:00;;;;;;;1.65;1.52;;;;;;;10.86;86.02;99336.81;5075950;28;20072;-68
2023/11/01 06:51:28;;;;;;;3.97;1.60;;;;;;;10.81;85.66;99343.66;5076457;28;20041;-68
2023/11/01 06:54:00;;;;;;;0.30;0.30;;;;;;;10.85;85.59;99330.00;5075012;28;20048;-68
2023/11/01 06:56:28;;;;;;;0.30;0.30;;;;;;;10.88;85.11;99333.41;5076089;28;20718;-68
2023/11/01 06:58:57;;;;;;;0.93;0.67;;;;;;;10.96;84.62;99334.19;5075808;28;20047;-68
2023/11/01 07:01:27;;;;;;;0.50;0.50;;;;;;;11.10;84.28;99328.97;5075719;28;20036;-68
2023/11/01 07:03:56;;;;;;;0.40;0.40;;;;;;;11.25;83.64;99336.50;5076186;28;20054;-68
2023/11/01 07:06:25;;;;;;;0.40;0.40;;;;;;;11.43;83.03;99333.75;5075654;28;20274;-68
2023/11/01 07:08:54;;;;;;;0.60;0.57;;;;;;;11.40;82.79;99332.06;5073426;28;20068;-68
2023/11/01 07:11:24;;;;;;;0.43;0.43;;;;;;;11.46;82.63;99336.28;5075496;28;20063;-68
2023/11/01 07:13:54;;;;;;;0.40;0.40;;;;;;;11.64;82.21;99333.53;5075549;28;20036;-68
2023/11/01 07:16:23;;;;;;;0.35;0.35;;;;;;;11.65;81.94;99325.00;5075935;28;20043;-68
2023/11/01 07:18:52;;;;;;;1.00;0.93;;;;;;;11.77;81.76;99332.59;5075419;28;20128;-68
2023/11/01 07:21:21;;;;;;;0.70;0.70;;;;;;;11.78;81.27;99313.81;5075322;28;20378;-68
2023/11/01 07:23:50;;;;;;;0.40;0.40;;;;;;;11.76;80.88;99312.97;5075502;28;20481;-68
2023/11/01 07:26:18;;;;;;;1.03;0.97;;;;;;;11.79;80.91;99305.28;5075215;28;20323;-69
2023/11/01 07:28:49;;;;;;;0.55;0.47;;;;;;;11.79;80.80;99309.53;5075296;28;20285;-69
2023/11/01 07:31:18;;;;;;;0.40;0.40;;;;;;;11.88;80.79;99300.06;5075162;28;20409;-69
2023/11/01 07:33:47;;;;;;;0.40;0.40;;;;;;;12.01;80.34;99306.72;5074997;28;20052;-68
2023/11/01 07:36:16;;;;;;;0.40;0.40;;;;;;;12.01;80.14;99296.50;5075115;28;20119;-68
2023/11/01 07:38:45;;;;;;;6.32;0.82;;;;;;;12.10;79.86;99296.38;5075648;28;20037;-69
2023/11/01 07:41:16;;;;;;;0.65;0.65;;;;;;;12.24;79.52;99292.78;5075039;28;20059;-69
2023/11/01 07:43:45;;;;;;;6.65;1.63;;;;;;;12.39;79.40;99287.44;5074881;28;20489;-69
2023/11/01 07:46:15;;;;;;;0.53;0.50;;;;;;;12.56;79.37;99293.16;5074609;28;20048;-69
2023/11/01 07:48:45;;;;;;;0.60;0.60;;;;;;;12.64;78.33;99304.16;5075265;28;20119;-69
2023/11/01 07:51:14;;;;;;;0.68;0.60;;;;;;;12.70;78.05;99302.31;5074729;28;20501;-68
2023/11/01 07:53:42;;;;;;;0.50;0.50;;;;;;;12.77;77.91;99298.78;5074756;28;20482;-69
2023/11/01 07:56:11;;;;;;;0.70;0.70;;;;;;;12.85;77.53;99306.38;5074951;28;20774;-69
2023/11/01 07:58:40;;;;;;;0.30;0.30;;;;;;;12.95;77.26;99305.34;5075704;28;20474;-69
2023/11/01 08:01:09;;;;;;;0.28;0.28;;;;;;;13.02;76.86;99306.09;5074539;28;20551;-69
2023/11/01 08:03:39;;;;;;;1.13;0.88;;;;;;;13.08;76.69;99306.00;5074393;28;20032;-69
2023/11/01 08:06:09;;;;;;;0.50;0.50;;;;;;;13.15;76.31;99308.44;5074515;28;20085;-69
2023/11/01 08:08:38;;;;;;;0.65;0.63;;;;;;;13.21;76.32;99298.09;5074719;28;20071;-69
2023/11/01 08:11:07;;;;;;;0.40;0.40;;;;;;;13.35;75.97;99296.13;5074331;28;20058;-68
2023/11/01 08:13:36;;;;;;;0.65;0.52;;;;;;;13.38;75.67;99296.09;5074183;28;20048;-69
2023/11/01 08:16:06;;;;;;;0.77;0.70;;;;;;;13.46;75.43;99293.34;5074566;28;20044;-69
2023/11/01 08:18:35;;;;;;;0.82;0.52;;;;;;;13.54;74.67;99300.91;5074127;28;20040;-69
2023/11/01 08:21:05;;;;;;;0.70;0.70;;;;;;;13.59;74.80;99314.50;5074676;28;20059;-69
2023/11/01 08:23:35;;;;;;;0.77;0.77;;;;;;;13.70;75.03;99302.34;5074088;28;20040;-69
2023/11/01 08:26:06;;;;;;;0.52;0.50;;;;;;;13.64;74.36;99312.69;5074067;28;20098;-69
2023/11/01 08:28:35;;;;;;;0.30;0.30;;;;;;;13.63;74.10;99311.00;5073159;28;20147;-69
2023/11/01 08:31:04;;;;;;;2.13;1.43;;;;;;;13.69;73.83;99316.88;5073962;28;20502;-69
2023/11/01 08:33:33;;;;;;;0.75;0.60;;;;;;;13.80;74.08;99314.06;5072884;28;20040;-70
2023/11/01 08:36:01;;;;;;;0.30;0.30;;;;;;;13.78;73.48;99320.97;5073921;28;20552;-70
2023/11/01 08:38:32;;;;;;;1.30;0.90;;;;;;;13.79;73.29;99320.09;5073825;28;20045;-70
2023/11/01 08:41:13;;;;;;;2.22;0.70;;;;;;;13.68;72.66;99293.78;5074035;28;20048;-69
2023/11/01 08:43:56;;;;;;;0.88;0.70;;;;;;;13.95;73.30;99308.66;5074189;28;20493;-69
2023/11/01 08:46:25;;;;;;;0.80;0.75;;;;;;;13.97;72.97;99304.31;5073773;28;20136;-69
2023/11/01 08:48:54;;;;;;;0.40;0.40;;;;;;;14.00;73.04;99296.56;5073962;28;20094;-69
2023/11/01 08:51:25;;;;;;;0.70;0.70;;;;;;;14.02;72.62;99293.09;5073748;28;20098;-70
2023/11/01 08:53:59;;;;;;;0.70;0.68;;;;;;;14.07;73.07;99298.13;5074032;28;20076;-69
2023/11/01 08:56:29;;;;;;;0.70;0.70;;;;;;;14.16;72.75;99302.25;5072681;28;20074;-70
2023/11/01 08:58:59;;;;;;;1.13;0.93;;;;;;;14.20;73.38;99304.72;5073629;28;20052;-69
2023/11/01 09:01:28;;;;;;;0.60;0.60;;;;;;;14.32;73.61;99309.63;5072231;28;20040;-69
2023/11/01 09:03:57;;;;;;;0.68;0.68;;;;;;;14.42;72.96;99318.78;5073447;28;20277;-70
2023/11/01 09:06:26;;;;;;;0.60;0.57;;;;;;;14.40;72.71;99328.25;5073784;28;20064;-70
2023/11/01 09:08:56;;;;;;;0.73;0.73;;;;;;;14.48;72.84;99334.06;5073594;28;20040;-69
2023/11/01 09:11:25;;;;;;;0.75;0.75;;;;;;;14.46;72.27;99337.53;5073887;28;20071;-68
2023/11/01 09:13:54;;;;;;;0.43;0.43;;;;;;;14.53;72.45;99329.69;5073822;28;20121;-69
2023/11/01 09:16:23;;;;;;;0.90;0.80;;;;;;;14.60;72.48;99328.66;5073463;28;20043;-69
2023/11/01 09:18:52;;;;;;;0.60;0.60;;;;;;;14.63;71.87;99335.44;5073386;28;20520;-69
2023/11/01 09:21:21;;;;;;;0.47;0.47;;;;;;;14.57;71.96;99343.28;5073396;28;20277;-68
2023/11/01 09:23:49;;;;;;;0.37;0.37;;;;;;;14.70;71.37;99348.13;5073333;28;20273;-69
2023/11/01 09:26:20;;;;;;;0.30;0.30;;;;;;;14.88;71.31;99340.84;5073301;28;20401;-69
2023/11/01 09:28:49;;;;;;;0.47;0.47;;;;;;;14.91;70.88;99345.94;5073232;28;20041;-70
2023/11/01 09:31:18;;;;;;;0.43;0.43;;;;;;;14.96;70.26;99339.81;5073318;28;20041;-70
2023/11/01 09:33:48;;;;;;;0.45;0.45;;;;;;;15.07;69.74;99335.25;5076450;28;20356;-69
2023/11/01 09:36:18;;;;;;;0.40;0.40;;;;;;;15.21;69.14;99343.44;5077383;28;20041;-68
2023/11/01 09:38:47;;;;;;;0.50;0.50;;;;;;;15.17;69.56;99339.28;5077632;28;20068;-69
2023/11/01 09:41:23;;;;;;;0.60;0.60;;;;;;;15.13;69.96;99326.53;5077248;28;20048;-69
2023/11/01 09:43:55;;;;;;;0.57;0.57;;;;;;;15.22;70.16;99328.88;5077256;28;20375;-70
2023/11/01 09:46:24;;;;;;;0.50;0.50;;;;;;;15.32;69.95;99322.63;5076917;28;20064;-69
2023/11/01 09:48:55;;;;;;;0.50;0.50;;;;;;;15.38;69.78;99312.16;5077086;28;20118;-70
2023/11/01 09:51:25;;;;;;;0.45;0.45;;;;;;;15.54;70.50;99313.50;5077030;28;20040;-68
2023/11/01 09:53:53;;;;;;;0.57;0.57;;;;;;;15.57;69.74;99317.72;5077257;28;20123;-70
2023/11/01 09:56:28;;;;;;;0.50;0.50;;;;;;;15.47;69.73;99322.28;5076876;28;20095;-69
2023/11/01 09:58:58;;;;;;;0.52;0.52;;;;;;;15.49;69.82;99320.50;5077187;28;20067;-69
2023/11/01 10:01:28;;;;;;;0.80;0.73;;;;;;;15.59;69.35;99326.25;5077393;28;20412;-70
2023/11/01 10:03:58;;;;;;;0.50;0.50;;;;;;;15.64;70.13;99307.22;5076726;28;20055;-70
2023/11/01 10:06:28;;;;;;;0.30;0.30;;;;;;;15.76;68.62;99314.63;5076806;28;20049;-69
2023/11/01 10:08:57;;;;;;;0.40;0.40;;;;;;;15.66;69.21;99307.19;5077044;28;20114;-70
2023/11/01 10:11:28;;;;;;;0.50;0.50;;;;;;;15.67;69.10;99314.03;5076624;28;20124;-70
2023/11/01 10:14:00;;;;;;;0.30;0.30;;;;;;;15.82;69.24;99313.59;5076624;28;20570;-70
2023/11/01 10:16:31;;;;;;;0.25;0.25;;;;;;;15.83;68.95;99316.13;5076517;28;20045;-70
2023/11/01 10:19:00;;;;;;;0.70;0.70;;;;;;;15.86;69.61;99321.16;5076523;28;20493;-70
2023/11/01 10:21:32;;;;;;;1.15;1.08;;;;;;;15.87;69.56;99327.16;5076696;28;20490;-69
2023/11/01 10:24:03;;;;;;;1.38;0.60;;;;;;;15.94;69.47;99332.09;5076329;28;20094;-71
2023/11/01 10:26:33;;;;;;;0.40;0.40;;;;;;;16.05;69.26;99330.06;5076298;28;20379;-70
2023/11/01 10:29:04;;;;;;;0.47;0.47;;;;;;;16.14;69.06;99330.69;5076375;28;20045;-71
2023/11/01 10:31:33;;;;;;;0.68;0.65;;;;;;;16.19;68.69;99334.84;5076366;28;20056;-70
2023/11/01 10:34:12;;;;;;;0.45;0.45;;;;;;;16.26;68.99;99320.03;5076185;28;20044;-70
2023/11/01 10:36:51;;;;;;;;;;;;;;;16.40;68.72;99328.19;5076690;28;20136;-70
2023/11/01 10:39:21;;;;;;;0.90;0.80;;;;;;;16.31;68.14;99323.34;5076300;28;19921;-70
2023/11/01 10:41:53;;;;;;;0.90;0.90;;;;;;;16.39;68.38;99321.34;5076132;28;20508;-69
2023/11/01 10:44:25;;;;;;;0.30;0.30;;;;;;;16.33;68.49;99312.09;5074891;28;20098;-69
2023/11/01 10:46:55;;;;;;;1.55;1.20;;;;;;;16.29;68.47;99301.94;5075754;28;20060;-70
2023/11/01 10:49:25;;;;;;;0.60;0.60;;;;;;;16.21;68.38;99307.31;5075961;28;20047;-70
2023/11/01 10:51:57;;;;;;;1.45;1.35;;;;;;;16.16;69.52;99303.16;5076184;28;20040;-70
2023/11/01 10:54:26;;;;;;;0.47;0.47;;;;;;;15.81;69.89;99296.47;5076072;28;20076;-70
2023/11/01 10:56:59;;;;;;;0.57;0.57;;;;;;;15.57;70.99;99295.41;5075862;28;20055;-70
2023/11/01 10:59:45;;;;;;;0.77;0.70;;;;;;;15.42;72.15;99295.78;5076071;28;20045;-70
2023/11/01 11:02:21;;;;;;;0.40;0.40;;;;;;;15.35;72.17;99286.56;5076047;28;20055;-70
2023/11/01 11:04:55;;;;;;;0.75;0.70;;;;;;;15.70;72.63;99286.47;5075716;28;20063;-71
2023/11/01 11:07:35;;;;;;;0.50;0.50;;;;;;;16.13;71.88;99283.50;5075926;28;20044;-70
2023/11/01 11:10:21;;;;;;;0.50;0.50;;;;;;;16.50;70.73;99283.25;5075613;28;20056;-71
2023/11/01 11:13:16;;;;;;;0.40;0.40;;;;;;;16.77;68.65;99281.56;5075650;28;20437;-71
2023/11/01 11:15:59;;;;;;;2.28;1.45;;;;;;;16.92;67.48;99278.47;5075456;28;20045;-71
2023/11/01 11:18:51;;;;;;;0.73;0.60;;;;;;;16.87;66.46;99275.22;5075478;28;20060;-70
2023/11/01 11:21:42;;;;;;;0.32;0.32;;;;;;;16.63;66.91;99266.53;5075375;28;20045;-70
2023/11/01 11:24:41;;;;;;;0.40;0.40;;;;;;;16.77;67.06;99266.97;5075553;28;20044;-71
2023/11/01 11:27:39;;;;;;;0.40;0.40;;;;;;;16.94;66.13;99269.78;5062022;28;20080;-70
2023/11/01 11:30:09;;;;;;;0.65;0.60;;;;;;;16.95;65.74;99266.34;5075002;28;20036;-70
2023/11/01 11:32:39;;;;;;;0.85;0.60;;;;;;;16.90;66.46;99268.22;5075199;28;20044;-70
2023/11/01 11:35:20;;;;;;;0.50;0.50;;;;;;;17.01;65.95;99260.16;5075309;28;20127;-70
2023/11/01 11:37:50;;;;;;;0.30;0.30;;;;;;;17.01;65.82;99260.16;5075061;28;20052;-70
2023/11/01 11:40:19;;;;;;;0.40;0.40;;;;;;;16.97;66.16;99264.53;5075019;28;20139;-70
2023/11/01 11:42:52;;;;;;;0.50;0.50;;;;;;;16.96;66.49;99262.88;5074876;28;20034;-70
2023/11/01 11:45:31;;;;;;;0.65;0.65;;;;;;;17.03;66.66;99264.34;5074654;28;20502;-71
2023/11/01 11:48:04;;;;;;;1.08;0.80;;;;;;;17.04;66.47;99265.19;5073696;28;20040;-70
2023/11/01 11:50:33;;;;;;;0.80;0.80;;;;;;;16.80;66.71;99256.53;5074798;28;20056;-70